Flight Track Log - Related Links

Times and Time Zones

All times are in EDT time to prevent confusion due to time zone crossing. See the N572CT flight status page for this flight to view local times or setup timezone preferences in your user account.

Time Position Orientation Groundspeed Altitude Reporting Facility
EDT Latitude Longitude Course Direction KTS MPH feet Rate Location/Type
Tue 02:00:38 PM 42.1667 -71.1667 237° Southwest 90 104 1,000  Level KA90
Tue 02:01:14 PM 42.1667 -71.1833 270° West 94 108 1,500 897 Climbing KA90
Tue 02:02:05 PM 42.1611 -71.2183 258° West 100 115 2,300 865 Climbing Boston Center
Tue 02:03:05 PM 42.1661 -71.2578 280° West 107 123 3,100 787 Climbing Boston Center
Tue 02:04:07 PM 42.1889 -71.2922 312° West 124 143 3,900 816 Climbing Boston Center
Tue 02:05:10 PM 42.2106 -71.3250 312° West 122 140 4,800 829 Climbing Boston Center
Tue 02:06:00 PM 42.0583 -71.4496 237° Southwest  Level Estimated
Tue 02:06:10 PM 42.2358 -71.3606 314° West 122 140 5,600  Level Boston Center
Tue 02:07:14 PM 42.2428 -71.4003 283° West 128 147 6,000 319 Climbing Boston Center
Tue 02:07:44 PM 42.2372 -71.4308 256° West 140 161 6,100  Climbing Boston Center
Tue 02:08:14 PM 42.2336 -71.4519 257° West 140 161 6,000  Descending Boston Center
Tue 02:09:03 PM 42.2244 -71.4989 255° West 140 161 6,100  Climbing Boston Center
Tue 02:09:15 PM 42.2233 -71.5069 259° West 141 162 6,000 -98 Descending Boston Center
Tue 02:10:04 PM 42.2153 -71.5478 255° West 137 158 6,000 -94 Level Boston Center
Tue 02:10:19 PM 42.2147 -71.5561 265° West 138 159 5,900  Descending Boston Center
Tue 02:11:04 PM 42.2053 -71.5994 254° West 136 157 6,000  Climbing Boston Center
Tue 02:11:20 PM 42.2047 -71.6100 266° West 138 159 5,900  Descending Boston Center
Tue 02:12:05 PM 42.1961 -71.6483 253° West 140 161 6,000  Climbing Boston Center
Tue 02:12:21 PM 42.1944 -71.6603 259° West 138 159 5,900  Descending Boston Center
Tue 02:13:06 PM 42.1844 -71.6992 251° West 138 159 6,000  Climbing Boston Center
Tue 02:13:22 PM 42.1825 -71.7089 255° West 138 159 5,900  Descending Boston Center
Tue 02:14:07 PM 42.1725 -71.7500 252° West 142 163 6,000  Climbing Boston Center
Tue 02:14:25 PM 42.1692 -71.7642 252° West 142 163 5,900 -76 Descending Boston Center
Tue 02:15:26 PM 42.1578 -71.8133 253° West 142 163 5,900 55 Level Boston Center
Tue 02:16:15 PM 42.1483 -71.8544 253° West 138 159 6,000  Climbing Boston Center
Tue 02:16:27 PM 42.1461 -71.8619 248° West 140 161 5,900  Descending Boston Center
Tue 02:17:15 PM 42.1364 -71.9053 253° West 140 161 6,000  Climbing Boston Center
Tue 02:17:30 PM 42.1339 -71.9133 247° West 140 161 5,900  Descending Boston Center
Tue 02:18:10 PM 42.1233 -71.9500 249° West 139 160 6,000  Climbing Boston Center
Tue 02:18:31 PM 42.1189 -71.9669 251° West 141 162 5,900  Descending Boston Center
Tue 02:19:19 PM 42.1083 -72.0053 250° West 139 160 6,000  Climbing Boston Center
Tue 02:19:31 PM 42.1050 -72.0161 247° West 140 161 5,900  Descending Boston Center
Tue 02:20:20 PM 42.0853 -72.0467 229° Southwest 147 169 6,000  Climbing Boston Center
Tue 02:20:35 PM 42.0803 -72.0539 227° Southwest 144 166 5,900  Descending Boston Center
Tue 02:21:21 PM 42.0547 -72.0822 219° Southwest 143 165 6,000 98 Climbing Boston Center
Tue 02:21:36 PM 42.0500 -72.0889 226° Southwest 144 166 6,000  Level Boston Center
Tue 02:22:20 PM 42.0267 -72.1156 220° Southwest 140 161 6,000  Level Boston Center
Tue 02:22:38 PM 42.0183 -72.1250 220° Southwest 138 159 6,000  Level Boston Center
Tue 02:23:14 PM 41.9992 -72.1464 220° Southwest 139 160 6,000  Level Boston Center
Tue 02:23:39 PM 41.9883 -72.1589 221° Southwest 140 161 6,000  Level Boston Center
Tue 02:24:15 PM 41.9686 -72.1819 221° Southwest 143 165 6,000  Level Boston Center
Tue 02:24:40 PM 41.9572 -72.1931 216° Southwest 142 163 6,000  Level Boston Center
Tue 02:25:16 PM 41.9386 -72.2147 221° Southwest 142 163 6,000  Level Boston Center
Tue 02:25:41 PM 41.9261 -72.2297 222° Southwest 141 162 6,000  Level Boston Center
Tue 02:26:18 PM 41.9072 -72.2528 222° Southwest 145 167 6,000  Level Boston Center
Tue 02:26:45 PM 41.8956 -72.2644 217° Southwest 141 162 6,000  Level Boston Center
Tue 02:27:31 PM 41.8722 -72.2894 219° Southwest 141 162 6,000 -98 Level Boston Center
Tue 02:27:46 PM 41.8656 -72.2981 224° Southwest 141 162 5,900  Descending Boston Center
Tue 02:28:25 PM 41.8444 -72.3200 218° Southwest 138 159 6,000  Climbing Boston Center
Tue 02:28:46 PM 41.8333 -72.3336 222° Southwest 141 162 5,900  Descending Boston Center
Tue 02:29:20 PM 41.8144 -72.3525 217° Southwest 145 167 6,000  Climbing Boston Center
Tue 02:29:47 PM 41.8017 -72.3689 224° Southwest 144 166 5,900  Descending Boston Center
Tue 02:30:20 PM 41.7836 -72.3878 218° Southwest 145 167 6,000  Climbing Boston Center
Tue 02:30:50 PM 41.7714 -72.4031 223° Southwest 144 166 5,900  Descending Boston Center
Tue 02:31:27 PM 41.7478 -72.4269 217° Southwest 147 169 6,000  Climbing Boston Center
Tue 02:31:51 PM 41.7369 -72.4403 223° Southwest 146 168 5,900  Descending Boston Center
Tue 02:32:30 PM 41.7172 -72.4622 220° Southwest 146 168 6,000  Climbing Boston Center
Tue 02:32:52 PM 41.7056 -72.4761 222° Southwest 147 169 5,900  Descending Boston Center
Tue 02:33:28 PM 41.6864 -72.4975 220° Southwest 147 169 6,000  Climbing Boston Center
Tue 02:33:55 PM 41.6742 -72.5106 219° Southwest 147 169 5,900  Descending Boston Center
Tue 02:34:37 PM 41.6506 -72.5364 219° Southwest 146 168 6,000  Climbing Boston Center
Tue 02:34:56 PM 41.6428 -72.5461 223° Southwest 148 170 5,900  Descending Boston Center
Tue 02:35:32 PM 41.6264 -72.5711 229° Southwest 144 166 6,000  Climbing Boston Center
Tue 02:35:56 PM 41.6189 -72.5925 245° Southwest 143 165 5,900  Descending Boston Center
Tue 02:36:33 PM 41.6097 -72.6225 248° West 144 166 6,000  Climbing Boston Center
Tue 02:37:00 PM 41.6025 -72.6414 243° Southwest 144 166 5,900  Descending Boston Center
Tue 02:37:31 PM 41.5933 -72.6714 248° West 144 166 6,000  Climbing Boston Center
Tue 02:38:01 PM 41.5856 -72.6903 241° Southwest 144 166 5,900  Descending Boston Center
Tue 02:38:34 PM 41.5772 -72.7203 250° West 146 168 6,000  Climbing Boston Center
Tue 02:39:02 PM 41.5681 -72.7433 242° Southwest 144 166 5,900 -68 Descending Boston Center
Tue 02:40:02 PM 41.5511 -72.7908 245° Southwest 144 166 5,900  Level Boston Center
Tue 02:41:06 PM 41.5353 -72.8397 247° West 144 166 5,900  Level Boston Center
Tue 02:42:07 PM 41.5178 -72.8911 246° West 143 165 5,900  Level Boston Center
Tue 02:43:08 PM 41.5017 -72.9408 247° West 144 166 5,900  Level Boston Center
Tue 02:44:08 PM 41.4842 -72.9894 244° Southwest 144 166 5,900  Level Boston Center
Tue 02:45:13 PM 41.4672 -73.0417 247° West 144 166 5,900  Level Boston Center
Tue 02:46:13 PM 41.4503 -73.0897 245° Southwest 144 166 5,900  Level Boston Center
Tue 02:47:14 PM 41.4336 -73.1378 245° Southwest 144 166 5,900  Level Boston Center
Tue 02:48:17 PM 41.4161 -73.1906 246° West 144 166 5,900  Level Boston Center
Tue 02:49:18 PM 41.3994 -73.2383 245° Southwest 145 167 5,900  Level Boston Center
Tue 02:50:19 PM 41.3828 -73.2858 245° Southwest 143 165 5,900  Level Boston Center
Tue 02:51:22 PM 41.3664 -73.3336 245° Southwest 143 165 5,900  Level Boston Center
Tue 02:52:24 PM 41.3481 -73.3850 245° Southwest 142 163 5,900  Level Boston Center
Tue 02:53:24 PM 41.3319 -73.4317 245° Southwest 142 163 5,900 -50 Level Boston Center
Tue 02:54:25 PM 41.3153 -73.4778 244° Southwest 142 163 5,800 -288 Descending Boston Center
Tue 02:55:29 PM 41.2964 -73.5353 246° West 152 175 5,300 -432 Descending Boston Center
Tue 02:56:30 PM 41.2783 -73.5869 245° Southwest 152 175 4,900 -176 Descending Boston Center
Tue 02:57:11 PM 41.2833 -73.6333 278° West 143 165 5,000 59 Climbing New York TRACON
Tue 02:58:11 PM 41.2667 -73.6833 246° West 136 157 5,000  Level New York TRACON
Tue 02:59:16 PM 41.2667 -73.7333 270° West 135 155 5,000  Level New York TRACON
Tue 03:00:16 PM 41.2667 -73.7833 270° West 137 158 5,000  Level New York TRACON
Tue 03:01:11 PM 41.2500 -73.8333 246° West 135 155 5,000  Level New York TRACON
Tue 03:02:17 PM 41.2500 -73.8833 270° West 138 159 5,000  Level New York TRACON
Tue 03:03:11 PM 41.2500 -73.9333 270° West 138 159 5,000  Level New York TRACON
Tue 03:03:42 PM 41.2458 -73.9514 253° West 136 157 5,000  Level Boston Center
Tue 03:04:43 PM 41.2397 -74.0019 261° West 138 159 5,000 32 Level Boston Center
Tue 03:06:47 PM 41.2311 -74.1053 264° West 137 158 5,100  Climbing Boston Center
Tue 03:07:47 PM 41.2189 -74.1506 250° West 136 157 5,000 -293 Descending Boston Center
Tue 03:08:50 PM 41.1783 -74.1700 200° South 154 177 4,500 -439 Descending Boston Center
Tue 03:09:50 PM 41.1356 -74.1925 202° Southwest 154 177 4,100 -170 Descending Boston Center
Tue 03:11:11 PM 41.0833 -74.2000 186° South 153 176 4,100  Level New York TRACON
Tue 03:12:05 PM 41.0500 -74.1833 159° South 156 180 4,100  Level New York TRACON
Tue 03:13:05 PM 41.0167 -74.1500 143° Southeast 155 178 4,100  Level New York TRACON
Tue 03:14:05 PM 40.9833 -74.1167 143° Southeast 162 186 4,100 -300 Level New York TRACON
Tue 03:16:05 PM 40.9000 -74.0833 163° South 153 176 3,200 -387 Descending New York TRACON
Tue 03:17:11 PM 40.8500 -74.0833 180° South 153 176 2,900 -300 Descending New York TRACON
Tue 03:18:05 PM 40.8167 -74.0833 180° South 153 176 2,600 -450 Descending New York TRACON
Tue 03:19:11 PM 40.7667 -74.1167 207° Southwest 143 165 2,000 -810 Descending New York TRACON
Tue 03:20:11 PM 40.7333 -74.1333 201° Southwest 130 150 900 -800 Descending New York TRACON
Tue 03:21:11 PM 40.7167 -74.1500 217° Southwest 110 127 400 -500 Descending New York TRACON

Login

Don't have an account? Register now (free) for customized features, flight alerts, and more!